Time;durP1;ratioP1;P1;durP2;ratioP2;P2;SDS_P1;SDS_P2;PMS_P1;PMS_P2;Temp;Humidity;BMP_temperature;BMP_pressure;BME280_temperature;BME280_humidity;BME280_pressure;Samples;Min_cycle;Max_cycle;Signal;HPM_P1;HPM_P2
2021/06/30 00:01:55;;;;;;;7.27;5.53;;;17.00;99.90;;;;;;5087826;28;20397;-83
2021/06/30 00:04:20;;;;;;;4.03;3.73;;;16.90;99.90;;;;;;5089777;28;20167;-82
2021/06/30 00:06:46;;;;;;;4.07;3.37;;;16.90;99.90;;;;;;5088451;28;20213;-82
2021/06/30 00:09:16;;;;;;;4.60;4.27;;;17.10;99.90;;;;;;5087767;28;20214;-82
2021/06/30 00:11:42;;;;;;;3.93;3.20;;;16.90;99.90;;;;;;5087706;28;20441;-82
2021/06/30 00:14:08;;;;;;;4.20;3.40;;;17.00;99.90;;;;;;5088511;28;20420;-82
2021/06/30 00:16:34;;;;;;;4.30;3.90;;;17.20;99.90;;;;;;5088448;28;20255;-83
2021/06/30 00:19:01;;;;;;;8.60;4.03;;;17.10;99.90;;;;;;5088208;28;20435;-82
2021/06/30 00:21:27;;;;;;;4.87;3.70;;;17.30;99.90;;;;;;5087487;28;20235;-82
2021/06/30 00:23:54;;;;;;;3.93;3.53;;;17.50;99.90;;;;;;5086558;28;20398;-82
2021/06/30 00:26:20;;;;;;;2.97;2.77;;;17.10;99.90;;;;;;5090024;28;20431;-82
2021/06/30 00:28:46;;;;;;;3.93;3.60;;;16.80;99.90;;;;;;5088842;28;20421;-79
2021/06/30 00:31:12;;;;;;;6.03;3.93;;;17.10;99.90;;;;;;5091683;28;20442;-79
2021/06/30 00:33:38;;;;;;;6.93;4.60;;;16.90;99.90;;;;;;5091027;28;20531;-82
2021/06/30 00:36:04;;;;;;;4.87;3.97;;;16.80;99.90;;;;;;5089016;28;20393;-82
2021/06/30 00:38:30;;;;;;;3.97;3.60;;;16.60;99.90;;;;;;5088728;28;20432;-82
2021/06/30 00:40:56;;;;;;;10.90;4.40;;;16.70;99.90;;;;;;5088727;28;20446;-82
2021/06/30 00:43:21;;;;;;;6.73;4.07;;;16.70;99.90;;;;;;5089806;28;20179;-81
2021/06/30 00:45:48;;;;;;;4.70;4.30;;;16.80;99.90;;;;;;5088052;28;20167;-82
2021/06/30 00:48:14;;;;;;;5.17;4.30;;;16.70;99.90;;;;;;5088881;28;20175;-82
2021/06/30 00:50:40;;;;;;;9.43;4.27;;;16.80;99.90;;;;;;5088650;28;20397;-80
2021/06/30 00:53:06;;;;;;;5.30;4.80;;;17.00;99.90;;;;;;5088523;28;20393;-81
2021/06/30 00:55:32;;;;;;;4.43;4.10;;;17.20;99.90;;;;;;5088348;28;20386;-79
2021/06/30 00:57:58;;;;;;;4.47;4.07;;;17.30;99.90;;;;;;5089025;28;20432;-81
2021/06/30 01:00:24;;;;;;;5.30;4.80;;;17.40;99.90;;;;;;5088947;28;20898;-81
2021/06/30 01:02:50;;;;;;;4.77;4.43;;;17.20;99.90;;;;;;5090023;28;20173;-82
2021/06/30 01:05:17;;;;;;;4.00;3.60;;;17.00;99.90;;;;;;5087507;28;20167;-80
2021/06/30 01:07:44;;;;;;;4.90;4.50;;;16.90;99.90;;;;;;5089386;28;20441;-82
2021/06/30 01:10:10;;;;;;;5.27;4.77;;;17.00;99.90;;;;;;5088445;28;20583;-82
2021/06/30 01:12:37;;;;;;;4.67;4.27;;;17.20;99.90;;;;;;5088497;28;20446;-80
2021/06/30 01:15:04;;;;;;;5.43;4.97;;;16.90;99.90;;;;;;5087998;28;20617;-82
2021/06/30 01:17:30;;;;;;;5.43;4.93;;;17.00;99.90;;;;;;5086749;28;20402;-83
2021/06/30 01:19:56;;;;;;;7.53;4.70;;;17.00;99.90;;;;;;5088164;28;20411;-81
2021/06/30 01:22:24;;;;;;;5.87;5.40;;;16.90;99.90;;;;;;5088570;28;20168;-81
2021/06/30 01:24:52;;;;;;;6.53;5.90;;;17.00;99.90;;;;;;5089413;28;20167;-81
2021/06/30 01:27:19;;;;;;;5.10;4.73;;;17.00;99.90;;;;;;5088967;28;20414;-82
2021/06/30 01:29:46;;;;;;;12.00;6.47;;;17.20;99.90;;;;;;5088062;28;20398;-81
2021/06/30 01:32:12;;;;;;;10.10;6.77;;;16.90;99.90;;;;;;5087208;28;20800;-82
2021/06/30 01:34:38;;;;;;;6.83;6.00;;;16.90;99.90;;;;;;5085158;28;20421;-82
2021/06/30 01:37:04;;;;;;;8.53;6.23;;;17.00;99.90;;;;;;5083971;28;20827;-82
2021/06/30 01:39:30;;;;;;;8.40;6.07;;;17.10;99.90;;;;;;5085896;28;20174;-82
2021/06/30 01:41:58;;;;;;;7.90;5.40;;;16.90;99.90;;;;;;5085076;28;20237;-82
2021/06/30 01:44:24;;;;;;;5.63;5.13;;;17.10;99.90;;;;;;5085811;28;20159;-82
2021/06/30 01:46:50;;;;;;;5.73;5.23;;;17.10;99.90;;;;;;5085910;28;20408;-82
2021/06/30 01:49:16;;;;;;;6.53;5.90;;;17.10;99.90;;;;;;5085587;28;20420;-81
2021/06/30 01:51:42;;;;;;;6.40;5.80;;;17.00;99.90;;;;;;5083623;28;20198;-82
2021/06/30 01:54:12;;;;;;;5.50;5.00;;;16.90;99.90;;;;;;5084605;28;20168;-81
2021/06/30 01:56:38;;;;;;;10.13;6.47;;;16.90;99.90;;;;;;5084806;28;20390;-82
2021/06/30 01:59:08;;;;;;;6.27;5.77;;;17.10;99.90;;;;;;5084421;28;20488;-82
2021/06/30 02:01:34;;;;;;;8.20;5.83;;;17.20;99.90;;;;;;5085551;28;20175;-82
2021/06/30 02:04:01;;;;;;;5.30;4.90;;;17.10;99.90;;;;;;5084945;28;20397;-82
2021/06/30 02:06:28;;;;;;;4.97;4.50;;;17.30;99.90;;;;;;5084673;28;20402;-82
2021/06/30 02:08:57;;;;;;;10.27;6.13;;;17.10;99.90;;;;;;5084706;28;20797;-82
2021/06/30 02:11:26;;;;;;;6.03;5.40;;;17.20;99.90;;;;;;5084982;28;20449;-81
2021/06/30 02:13:52;;;;;;;5.83;5.20;;;17.10;99.90;;;;;;5084661;28;20489;-81
2021/06/30 02:16:20;;;;;;;6.00;5.50;;;17.00;99.90;;;;;;5084151;28;20393;-82
2021/06/30 02:18:46;;;;;;;7.80;6.07;;;17.10;99.90;;;;;;5084768;28;20745;-81
2021/06/30 02:21:15;;;;;;;6.90;6.40;;;17.40;99.90;;;;;;5084088;28;20412;-82
2021/06/30 02:23:41;;;;;;;4.97;4.57;;;17.40;99.90;;;;;;5084732;28;20398;-82
2021/06/30 02:26:07;;;;;;;10.17;6.00;;;17.00;99.90;;;;;;5085220;28;20401;-82
2021/06/30 02:28:35;;;;;;;5.47;5.07;;;17.00;99.90;;;;;;5084662;28;20491;-81
2021/06/30 02:31:01;;;;;;;7.90;4.87;;;17.00;99.90;;;;;;5084810;28;20452;-82
2021/06/30 02:33:27;;;;;;;8.80;4.73;;;17.20;99.90;;;;;;5085158;28;20462;-81
2021/06/30 02:35:54;;;;;;;7.00;5.10;;;17.50;99.90;;;;;;5084383;28;20414;-82
2021/06/30 02:38:20;;;;;;;5.33;4.93;;;17.70;99.90;;;;;;5084052;28;20827;-82
2021/06/30 02:40:45;;;;;;;6.93;5.70;;;17.50;99.90;;;;;;5085014;28;20389;-82
2021/06/30 02:43:11;;;;;;;8.83;4.70;;;17.70;99.90;;;;;;5084747;28;20181;-82
2021/06/30 02:45:38;;;;;;;5.27;4.83;;;17.70;99.90;;;;;;5085191;28;20382;-82
2021/06/30 02:48:04;;;;;;;7.00;4.97;;;17.80;99.90;;;;;;5084746;28;20593;-82
2021/06/30 02:50:30;;;;;;;5.33;4.80;;;17.40;99.90;;;;;;5084702;28;20408;-82
2021/06/30 02:52:56;;;;;;;5.57;5.17;;;17.40;99.90;;;;;;5085626;28;20444;-82
2021/06/30 02:55:22;;;;;;;5.87;5.37;;;17.40;99.90;;;;;;5089286;28;20592;-82
2021/06/30 02:57:49;;;;;;;5.30;4.80;;;17.50;99.90;;;;;;5088042;28;20386;-81
2021/06/30 03:00:22;;;;;;;5.53;5.03;;;17.40;99.90;;;;;;5089215;28;20402;-82
2021/06/30 03:02:49;;;;;;;5.10;4.60;;;17.50;99.90;;;;;;5089180;28;20390;-82
2021/06/30 03:05:15;;;;;;;10.30;6.00;;;17.20;99.90;;;;;;5087596;28;20390;-82
2021/06/30 03:07:41;;;;;;;7.60;5.97;;;16.90;99.90;;;;;;5088704;28;20945;-78
2021/06/30 03:10:10;;;;;;;6.80;6.20;;;16.60;99.90;;;;;;5092364;28;20397;-78
2021/06/30 03:12:36;;;;;;;8.60;6.20;;;17.00;99.90;;;;;;5093486;28;20198;-78
2021/06/30 03:15:04;;;;;;;8.00;6.87;;;17.10;99.90;;;;;;5092724;28;20389;-79
2021/06/30 03:17:33;;;;;;;6.00;5.50;;;17.10;99.90;;;;;;5093206;28;20393;-79
2021/06/30 03:19:59;;;;;;;12.73;7.50;;;16.90;99.90;;;;;;5088407;28;20397;-81
2021/06/30 03:22:25;;;;;;;8.93;6.40;;;17.10;99.90;;;;;;5088475;28;20416;-81
2021/06/30 03:24:51;;;;;;;9.13;6.37;;;17.20;99.90;;;;;;5086409;28;20394;-81
2021/06/30 03:27:17;;;;;;;5.60;5.10;;;17.00;99.90;;;;;;5087241;28;20164;-81
2021/06/30 03:29:42;;;;;;;9.87;7.00;;;17.00;99.90;;;;;;5087254;28;20522;-82
2021/06/30 03:32:08;;;;;;;6.43;5.80;;;16.60;99.90;;;;;;5087690;28;20195;-82
2021/06/30 03:34:34;;;;;;;7.10;6.10;;;16.70;99.90;;;;;;5086936;28;20156;-82
2021/06/30 03:37:00;;;;;;;6.20;5.60;;;16.80;99.90;;;;;;5087558;28;20254;-81
2021/06/30 03:39:26;;;;;;;6.87;6.27;;;17.10;99.90;;;;;;5088172;28;20166;-81
2021/06/30 03:41:51;;;;;;;6.80;6.10;;;17.30;99.90;;;;;;5088224;28;20227;-81
2021/06/30 03:44:17;;;;;;;8.43;5.67;;;17.40;99.90;;;;;;5087555;28;20168;-81
2021/06/30 03:46:43;;;;;;;6.60;5.67;;;17.40;99.90;;;;;;5087650;28;20194;-81
2021/06/30 03:49:09;;;;;;;6.10;4.90;;;17.50;99.90;;;;;;5087046;28;20543;-82
2021/06/30 03:51:34;;;;;;;4.93;4.57;;;17.50;99.90;;;;;;5086400;28;20187;-81
2021/06/30 03:54:00;;;;;;;6.93;6.00;;;17.50;99.90;;;;;;5087370;28;20209;-82
2021/06/30 03:56:27;;;;;;;5.20;4.80;;;17.60;99.90;;;;;;5087341;28;20164;-81
2021/06/30 03:58:55;;;;;;;5.67;5.20;;;17.70;99.90;;;;;;5087049;28;20405;-82
2021/06/30 04:01:22;;;;;;;5.00;4.60;;;17.60;99.90;;;;;;5087490;28;20466;-82
2021/06/30 04:03:53;;;;;;;5.23;4.83;;;17.60;99.90;;;;;;5087360;28;20431;-82
2021/06/30 04:06:20;;;;;;;4.30;4.00;;;17.60;99.90;;;;;;5087973;28;20731;-81
2021/06/30 04:08:46;;;;;;;13.00;4.57;;;17.60;99.90;;;;;;5086797;28;20536;-82
2021/06/30 04:11:12;;;;;;;5.10;4.70;;;17.30;99.90;;;;;;5086973;28;20970;-81
2021/06/30 04:13:38;;;;;;;4.87;4.47;;;17.40;99.90;;;;;;5086183;28;20531;-79
2021/06/30 04:16:04;;;;;;;6.43;4.50;;;17.50;99.90;;;;;;5092094;28;20159;-79
2021/06/30 04:18:30;;;;;;;5.07;4.67;;;17.50;99.90;;;;;;5090524;28;20390;-82
2021/06/30 04:20:56;;;;;;;5.43;4.47;;;17.50;99.90;;;;;;5087874;28;20390;-82
2021/06/30 04:23:21;;;;;;;5.40;4.90;;;17.50;99.90;;;;;;5087432;28;20250;-82
2021/06/30 04:25:48;;;;;;;5.80;5.10;;;17.50;99.90;;;;;;5083443;28;20654;-83
2021/06/30 04:28:14;;;;;;;5.13;3.73;;;17.60;99.90;;;;;;5087049;28;20235;-82
2021/06/30 04:30:41;;;;;;;5.10;4.70;;;17.70;99.90;;;;;;5088178;28;20685;-82
2021/06/30 04:33:07;;;;;;;9.47;6.03;;;17.80;99.90;;;;;;5088415;28;20462;-82
2021/06/30 04:35:34;;;;;;;6.50;4.23;;;17.70;99.90;;;;;;5087621;28;20709;-81
2021/06/30 04:38:02;;;;;;;4.97;4.50;;;17.70;99.90;;;;;;5088160;28;20398;-81
2021/06/30 04:40:28;;;;;;;4.93;4.43;;;17.60;99.90;;;;;;5088088;28;20469;-82
2021/06/30 04:42:53;;;;;;;6.10;5.53;;;17.70;99.90;;;;;;5086131;28;20445;-80
2021/06/30 04:45:19;;;;;;;4.63;4.23;;;17.50;99.90;;;;;;5086219;28;20220;-82
2021/06/30 04:47:45;;;;;;;5.23;4.73;;;17.60;99.90;;;;;;5087799;28;20503;-84
2021/06/30 04:50:12;;;;;;;6.60;4.00;;;17.70;99.90;;;;;;5088009;28;20168;-82
2021/06/30 04:52:38;;;;;;;3.93;3.63;;;17.70;99.90;;;;;;5087452;28;20563;-82
2021/06/30 04:55:06;;;;;;;4.37;4.07;;;17.70;99.90;;;;;;5087138;28;20397;-82
2021/06/30 04:57:31;;;;;;;4.10;3.73;;;17.80;99.90;;;;;;5086939;28;20532;-82
2021/06/30 04:59:57;;;;;;;10.13;4.60;;;17.80;99.90;;;;;;5087058;28;20388;-82
2021/06/30 05:02:23;;;;;;;4.23;3.83;;;17.70;99.90;;;;;;5087301;28;20160;-82
2021/06/30 05:04:49;;;;;;;4.07;3.77;;;17.20;99.90;;;;;;5086682;28;20159;-82
2021/06/30 05:07:15;;;;;;;4.60;4.20;;;17.40;99.90;;;;;;5085150;28;20182;-82
2021/06/30 05:09:40;;;;;;;4.00;3.70;;;17.70;99.90;;;;;;5086453;28;20238;-82
2021/06/30 05:12:06;;;;;;;3.43;3.23;;;17.90;99.90;;;;;;5085014;28;20191;-83
2021/06/30 05:14:32;;;;;;;5.27;4.60;;;17.60;99.90;;;;;;5087161;28;20212;-81
2021/06/30 05:16:59;;;;;;;8.53;4.57;;;17.80;99.90;;;;;;5086291;28;20163;-83
2021/06/30 05:19:25;;;;;;;7.27;3.73;;;17.40;99.90;;;;;;5087231;28;20171;-82
2021/06/30 05:21:51;;;;;;;4.10;3.80;;;17.30;99.90;;;;;;5091508;28;20436;-81
2021/06/30 05:24:16;;;;;;;4.67;4.20;;;17.60;99.90;;;;;;5086382;28;20203;-81
2021/06/30 05:26:42;;;;;;;4.00;3.53;;;17.80;99.90;;;;;;5086397;28;20171;-82
2021/06/30 05:29:08;;;;;;;8.27;3.93;;;18.00;99.90;;;;;;5086585;28;20221;-83
2021/06/30 05:31:35;;;;;;;4.73;4.33;;;18.20;99.90;;;;;;5087459;28;20199;-80
2021/06/30 05:34:01;;;;;;;3.73;3.53;;;18.10;99.90;;;;;;5087788;28;20229;-81
2021/06/30 05:36:26;;;;;;;4.10;3.70;;;17.90;99.90;;;;;;5088581;28;20397;-81
2021/06/30 05:38:52;;;;;;;6.97;4.30;;;18.10;99.90;;;;;;5087164;28;20426;-83
2021/06/30 05:41:18;;;;;;;4.13;3.60;;;17.60;99.90;;;;;;5085893;28;20233;-83
2021/06/30 05:43:44;;;;;;;3.83;3.53;;;17.50;99.90;;;;;;5085194;28;20171;-83
2021/06/30 05:46:09;;;;;;;3.80;3.40;;;17.30;99.90;;;;;;5086008;28;20171;-83
2021/06/30 05:48:35;;;;;;;4.50;4.10;;;17.60;99.90;;;;;;5085986;28;20173;-82
2021/06/30 05:51:01;;;;;;;4.73;3.90;;;17.50;99.90;;;;;;5085859;28;20263;-82
2021/06/30 05:53:27;;;;;;;4.40;4.10;;;17.60;99.90;;;;;;5086119;28;20174;-82
2021/06/30 05:55:53;;;;;;;7.00;4.73;;;17.40;99.90;;;;;;5084949;28;20231;-83
2021/06/30 05:58:19;;;;;;;3.13;2.77;;;17.40;99.90;;;;;;5085991;28;20398;-82
2021/06/30 06:00:48;;;;;;;4.23;3.70;;;17.90;99.90;;;;;;5085396;28;20174;-83
2021/06/30 06:03:14;;;;;;;3.10;2.80;;;18.00;99.90;;;;;;5084281;28;20167;-81
2021/06/30 06:05:40;;;;;;;4.10;3.70;;;18.20;99.90;;;;;;5086104;28;20420;-82
2021/06/30 06:08:05;;;;;;;4.43;3.80;;;18.30;99.90;;;;;;5085801;28;20274;-81
2021/06/30 06:10:31;;;;;;;4.70;4.00;;;18.10;99.90;;;;;;5085124;28;20171;-82
2021/06/30 06:12:57;;;;;;;3.37;3.10;;;18.10;99.90;;;;;;5085961;28;20199;-82
2021/06/30 06:15:23;;;;;;;4.30;3.70;;;18.20;99.90;;;;;;5085651;28;20493;-82
2021/06/30 06:17:49;;;;;;;3.57;3.27;;;18.20;99.90;;;;;;5085682;28;20199;-82
2021/06/30 06:20:15;;;;;;;3.13;2.93;;;18.30;99.90;;;;;;5084556;28;20270;-81
2021/06/30 06:22:41;;;;;;;3.60;3.30;;;18.40;99.90;;;;;;5085977;28;20160;-82
2021/06/30 06:25:08;;;;;;;3.90;3.60;;;18.50;99.90;;;;;;5085077;28;20516;-82
2021/06/30 06:27:34;;;;;;;4.27;3.87;;;18.50;99.90;;;;;;5084598;28;20501;-82
2021/06/30 06:30:01;;;;;;;3.43;3.13;;;18.50;99.90;;;;;;5084336;28;20475;-82
2021/06/30 06:32:26;;;;;;;3.07;2.87;;;18.60;99.90;;;;;;5085115;28;20448;-82
2021/06/30 06:34:52;;;;;;;6.73;3.40;;;18.50;99.90;;;;;;5084742;28;20417;-82
2021/06/30 06:37:18;;;;;;;3.63;3.40;;;18.60;99.90;;;;;;5085653;28;20168;-82
2021/06/30 06:39:45;;;;;;;3.97;3.23;;;18.60;99.90;;;;;;5085026;28;20402;-82
2021/06/30 06:42:12;;;;;;;3.50;3.20;;;18.20;99.90;;;;;;5084658;28;20266;-82
2021/06/30 06:44:41;;;;;;;3.80;3.40;;;18.10;99.90;;;;;;5085114;28;20425;-82
2021/06/30 06:47:07;;;;;;;3.63;3.33;;;18.40;99.90;;;;;;5083574;28;20430;-82
2021/06/30 06:49:33;;;;;;;3.40;3.17;;;18.50;99.90;;;;;;5084855;28;20448;-83
2021/06/30 06:52:01;;;;;;;4.20;3.57;;;18.40;99.90;;;;;;5082467;28;20460;-82
2021/06/30 06:54:27;;;;;;;3.60;3.27;;;18.40;99.90;;;;;;5085163;28;20416;-82
2021/06/30 06:56:53;;;;;;;3.23;3.03;;;18.50;99.90;;;;;;5084756;28;20417;-83
2021/06/30 06:59:18;;;;;;;7.80;3.37;;;18.50;99.90;;;;;;5084386;28;20417;-83
2021/06/30 07:01:44;;;;;;;4.57;3.60;;;18.40;99.90;;;;;;5084432;28;20175;-82
2021/06/30 07:04:10;;;;;;;4.80;3.20;;;18.10;99.90;;;;;;5082998;28;20171;-83
2021/06/30 07:06:36;;;;;;;3.50;3.20;;;18.20;99.90;;;;;;5081902;28;20198;-82
2021/06/30 07:09:02;;;;;;;5.10;3.57;;;17.90;99.90;;;;;;5084631;28;20199;-83
2021/06/30 07:11:28;;;;;;;3.67;3.27;;;18.10;99.90;;;;;;5082912;28;21029;-82
2021/06/30 07:13:54;;;;;;;3.70;3.40;;;18.10;99.90;;;;;;5083433;28;20426;-82
2021/06/30 07:16:20;;;;;;;4.07;3.77;;;18.30;99.90;;;;;;5082756;28;20175;-82
2021/06/30 07:18:46;;;;;;;4.73;3.57;;;18.50;99.90;;;;;;5083487;28;20182;-83
2021/06/30 07:21:12;;;;;;;3.20;2.90;;;18.50;99.90;;;;;;5083792;28;20426;-82
2021/06/30 07:23:38;;;;;;;3.20;3.00;;;18.60;99.90;;;;;;5084179;28;20171;-82
2021/06/30 07:26:05;;;;;;;3.20;3.00;;;18.80;99.90;;;;;;5084334;28;20174;-82
2021/06/30 07:28:31;;;;;;;6.03;3.20;;;18.30;99.90;;;;;;5083824;28;20563;-83
2021/06/30 07:30:57;;;;;;;3.23;3.03;;;18.20;99.90;;;;;;5084788;28;20493;-82
2021/06/30 07:33:23;;;;;;;3.77;3.50;;;18.20;99.90;;;;;;5085319;28;20416;-83
2021/06/30 07:35:49;;;;;;;4.10;3.80;;;18.40;99.90;;;;;;5081571;28;20425;-83
2021/06/30 07:38:15;;;;;;;4.17;3.77;;;18.50;99.90;;;;;;5084939;28;20163;-83
2021/06/30 07:40:42;;;;;;;2.87;2.67;;;18.60;99.90;;;;;;5085452;28;20413;-83
2021/06/30 07:43:07;;;;;;;2.90;2.70;;;18.50;99.90;;;;;;5084292;28;20417;-83
2021/06/30 07:45:33;;;;;;;4.13;3.00;;;17.90;99.90;;;;;;5082155;28;20416;-82
2021/06/30 07:48:00;;;;;;;11.03;3.40;;;17.40;99.90;;;;;;5087555;28;20164;-83
2021/06/30 07:50:26;;;;;;;3.23;3.03;;;17.50;99.90;;;;;;5088602;28;20187;-83
2021/06/30 07:52:52;;;;;;;3.40;3.07;;;17.70;99.90;;;;;;5088416;28;20460;-83
2021/06/30 07:55:20;;;;;;;4.70;2.70;;;17.80;99.90;;;;;;5084523;28;20464;-80
2021/06/30 07:57:46;;;;;;;3.27;3.07;;;17.60;99.90;;;;;;5073248;28;20458;-79
2021/06/30 08:00:12;;;;;;;3.40;3.10;;;17.90;99.90;;;;;;5089549;28;20432;-82
2021/06/30 08:02:39;;;;;;;3.33;3.10;;;18.00;99.90;;;;;;5091480;28;20420;-79
2021/06/30 08:05:07;;;;;;;3.60;3.33;;;18.20;99.90;;;;;;5091352;28;20413;-80
2021/06/30 08:07:33;;;;;;;2.90;2.70;;;18.50;99.90;;;;;;5071324;28;20425;-81
2021/06/30 08:09:59;;;;;;;4.30;2.80;;;18.90;99.90;;;;;;5087224;28;20421;-82
2021/06/30 08:12:25;;;;;;;5.33;3.30;;;18.50;99.90;;;;;;5088399;28;20453;-82
2021/06/30 08:14:51;;;;;;;2.93;2.73;;;18.60;99.90;;;;;;5087703;28;20846;-83
2021/06/30 08:17:17;;;;;;;4.33;3.37;;;18.80;99.90;;;;;;5087743;28;20463;-81
2021/06/30 08:19:43;;;;;;;3.27;2.97;;;19.10;99.90;;;;;;5088419;28;20413;-82
2021/06/30 08:22:10;;;;;;;3.43;3.17;;;19.20;99.90;;;;;;5085906;28;20632;-81
2021/06/30 08:24:42;;;;;;;3.67;3.33;;;19.20;99.90;;;;;;5086873;28;20480;-82
2021/06/30 08:27:09;;;;;;;5.03;2.83;;;19.40;99.90;;;;;;5086624;28;20417;-81
2021/06/30 08:29:40;;;;;;;3.77;3.57;;;19.40;99.90;;;;;;5087174;28;20890;-83
2021/06/30 08:32:07;;;;;;;3.00;2.70;;;19.40;99.90;;;;;;5084491;28;20809;-82
2021/06/30 08:34:35;;;;;;;2.90;2.70;;;19.40;99.90;;;;;;5086437;28;20428;-82
2021/06/30 08:37:05;;;;;;;2.53;2.43;;;19.60;99.90;;;;;;5088137;28;20410;-83
2021/06/30 08:39:31;;;;;;;6.23;2.53;;;19.60;99.90;;;;;;5087907;28;20583;-82
2021/06/30 08:41:57;;;;;;;2.50;2.40;;;19.70;99.90;;;;;;5105036;28;20455;-81
2021/06/30 08:44:23;;;;;;;2.80;2.60;;;19.80;99.90;;;;;;5106719;28;20405;-81
2021/06/30 08:46:50;;;;;;;2.30;2.20;;;19.70;99.90;;;;;;5104359;28;20418;-82
2021/06/30 08:49:19;;;;;;;2.93;2.70;;;19.40;99.90;;;;;;5066821;28;20399;-81
2021/06/30 08:51:45;;;;;;;6.00;3.40;;;19.40;99.90;;;;;;5083019;28;20448;-81
2021/06/30 08:54:12;;;;;;;2.63;2.50;;;19.30;99.90;;;;;;5087237;28;20772;-81
2021/06/30 08:56:40;;;;;;;2.57;2.37;;;19.30;99.90;;;;;;5087911;28;20404;-81
2021/06/30 08:59:07;;;;;;;2.50;2.30;;;19.30;99.90;;;;;;5086034;28;20452;-83
2021/06/30 09:01:33;;;;;;;8.03;2.17;;;19.40;99.90;;;;;;5089386;28;20390;-80
2021/06/30 09:04:00;;;;;;;3.00;2.77;;;19.30;99.90;;;;;;5064716;28;20424;-78
2021/06/30 09:06:28;;;;;;;2.90;2.70;;;19.20;99.90;;;;;;5066165;28;20571;-81
2021/06/30 09:08:56;;;;;;;2.30;2.20;;;18.60;99.90;;;;;;5064334;28;20450;-83
2021/06/30 09:11:26;;;;;;;2.60;2.40;;;18.70;99.90;;;;;;5064288;28;20481;-82
2021/06/30 09:14:09;;;;;;;3.07;2.87;;;18.80;99.90;;;;;;5063990;28;20460;-82
2021/06/30 09:17:26;;;;;;;2.90;2.70;;;18.70;99.90;;;;;;5064608;28;20469;-81
2021/06/30 09:19:57;;;;;;;2.90;2.70;;;18.70;99.90;;;;;;5033269;28;20416;-82
2021/06/30 09:22:28;;;;;;;2.70;2.50;;;18.60;99.90;;;;;;5056640;28;20462;-82
2021/06/30 09:24:56;;;;;;;2.50;2.37;;;18.50;99.90;;;;;;5064306;28;20422;-82
2021/06/30 09:27:40;;;;;;;2.20;2.00;;;18.80;99.90;;;;;;5064062;28;20409;-82
2021/06/30 09:30:08;;;;;;;2.40;2.20;;;18.90;99.90;;;;;;5064851;28;20415;-82
2021/06/30 09:32:34;;;;;;;2.73;1.90;;;19.00;99.90;;;;;;5081862;28;20519;-82
2021/06/30 09:35:21;;;;;;;2.23;2.13;;;19.10;99.90;;;;;;5067375;28;20513;-80
2021/06/30 09:37:48;;;;;;;1.83;1.73;;;19.30;99.90;;;;;;5089283;28;20827;-82
2021/06/30 09:40:16;;;;;;;1.67;1.57;;;19.60;99.90;;;;;;5089762;28;20432;-81
2021/06/30 09:42:43;;;;;;;2.90;1.90;;;19.80;99.90;;;;;;5092076;28;20469;-81
2021/06/30 09:45:14;;;;;;;2.00;1.90;;;20.10;99.90;;;;;;5073690;28;20465;-82
2021/06/30 09:47:49;;;;;;;1.83;1.73;;;20.30;99.90;;;;;;5090400;28;20497;-81
2021/06/30 09:50:17;;;;;;;1.80;1.70;;;20.70;99.90;;;;;;5084527;28;20486;-82
2021/06/30 09:52:45;;;;;;;5.73;2.10;;;20.60;99.90;;;;;;5089489;28;20553;-79
2021/06/30 09:55:30;;;;;;;1.80;1.70;;;20.70;99.90;;;;;;5089828;28;20418;-83
2021/06/30 09:57:59;;;;;;;3.33;2.00;;;20.70;99.90;;;;;;5071258;28;20447;-83
2021/06/30 10:00:28;;;;;;;1.73;1.63;;;20.30;99.90;;;;;;5042039;28;20427;-84
2021/06/30 10:02:57;;;;;;;1.90;1.80;;;20.00;99.90;;;;;;5071467;28;20451;-84
2021/06/30 10:05:31;;;;;;;1.70;1.60;;;20.40;99.90;;;;;;5088096;28;20397;-83
2021/06/30 10:08:12;;;;;;;1.80;1.70;;;20.30;99.90;;;;;;5088543;28;20516;-83
2021/06/30 10:10:38;;;;;;;1.93;1.83;;;20.70;99.90;;;;;;5074787;28;20405;-83
2021/06/30 10:13:04;;;;;;;1.80;1.70;;;20.80;99.90;;;;;;5089252;28;20461;-82
2021/06/30 10:15:31;;;;;;;1.97;1.87;;;20.20;99.90;;;;;;5090839;28;20485;-81
2021/06/30 10:17:58;;;;;;;1.70;1.60;;;20.10;99.90;;;;;;5090006;28;20471;-80
2021/06/30 10:20:25;;;;;;;2.40;2.20;;;20.40;99.90;;;;;;5086283;28;20437;-82
2021/06/30 10:22:51;;;;;;;1.87;1.77;;;20.70;99.90;;;;;;5085034;28;20447;-81
2021/06/30 10:25:18;;;;;;;1.67;1.57;;;20.70;99.90;;;;;;5066710;28;20254;-84
2021/06/30 10:27:44;;;;;;;1.90;1.80;;;20.90;99.90;;;;;;5053836;28;20418;-84
2021/06/30 10:30:10;;;;;;;5.03;1.90;;;20.80;99.90;;;;;;5081430;28;20950;-83
2021/06/30 10:32:38;;;;;;;1.47;1.37;;;20.80;99.90;;;;;;5086296;28;20206;-83
2021/06/30 10:35:16;;;;;;;1.73;1.50;;;20.60;99.90;;;;;;5089629;28;20445;-83
2021/06/30 10:37:52;;;;;;;2.23;1.70;;;20.30;99.90;;;;;;5089047;28;20394;-83
2021/06/30 10:40:18;;;;;;;1.60;1.50;;;20.50;99.90;;;;;;5090302;28;20396;-80
2021/06/30 10:43:01;;;;;;;1.47;1.37;;;19.90;99.90;;;;;;5089176;28;20459;-82
2021/06/30 10:45:27;;;;;;;1.67;1.57;;;20.00;99.90;;;;;;5087457;28;20414;-82
2021/06/30 10:48:05;;;;;;;2.00;1.90;;;20.10;99.90;;;;;;5089851;28;20405;-82
2021/06/30 10:50:49;;;;;;;1.40;1.30;;;20.00;99.90;;;;;;5090225;28;20239;-82
2021/06/30 10:53:37;;;;;;;1.60;1.40;;;20.70;99.90;;;;;;5070661;28;20468;-83
2021/06/30 10:56:08;;;;;;;1.73;1.57;;;20.90;99.90;;;;;;5089029;28;20496;-81
2021/06/30 10:58:34;;;;;;;1.57;1.47;;;21.30;99.90;;;;;;5069510;28;20434;-81
2021/06/30 11:01:07;;;;;;;1.37;1.27;;;21.90;99.90;;;;;;5088535;28;20410;-82
2021/06/30 11:03:46;;;;;;;4.17;1.37;;;22.00;99.90;;;;;;5071781;28;20176;-82
2021/06/30 11:06:34;;;;;;;1.77;1.40;;;22.30;99.90;;;;;;5088938;28;20410;-82
2021/06/30 11:09:05;;;;;;;1.50;1.40;;;21.90;99.90;;;;;;5080078;28;20441;-81
2021/06/30 11:11:53;;;;;;;1.60;1.50;;;20.80;99.90;;;;;;5082782;28;20497;-83
2021/06/30 11:14:20;;;;;;;1.50;1.40;;;21.00;99.90;;;;;;5071603;28;20432;-82
2021/06/30 11:16:51;;;;;;;1.30;1.20;;;20.70;99.90;;;;;;5051061;28;20430;-82
2021/06/30 11:19:37;;;;;;;1.20;1.10;;;21.20;99.90;;;;;;5032649;28;20423;-83
2021/06/30 11:22:06;;;;;;;4.50;1.20;;;21.40;99.90;;;;;;5034726;28;20406;-80
2021/06/30 11:24:47;;;;;;;1.57;1.47;;;21.50;99.90;;;;;;5071634;28;20414;-80
2021/06/30 11:27:36;;;;;;;1.23;1.13;;;21.60;99.90;;;;;;5072406;28;20509;-80
2021/06/30 11:30:05;;;;;;;1.33;1.23;;;21.20;99.90;;;;;;5042214;28;20429;-79
2021/06/30 11:32:47;;;;;;;2.77;1.40;;;20.50;99.90;;;;;;5053492;28;20458;-81
2021/06/30 11:35:23;;;;;;;8.43;1.60;;;20.70;99.90;;;;;;5068944;28;20453;-83
2021/06/30 11:38:04;;;;;;;1.47;1.37;;;21.00;99.90;;;;;;5034305;28;20415;-82
2021/06/30 11:40:35;;;;;;;1.10;1.00;;;21.80;99.90;;;;;;5053152;28;20494;-83
2021/06/30 11:43:04;;;;;;;1.23;1.13;;;22.30;99.90;;;;;;5069483;28;20496;-82
2021/06/30 11:45:34;;;;;;;1.20;1.10;;;22.30;99.90;;;;;;5072802;28;20436;-81
2021/06/30 11:48:03;;;;;;;1.20;1.10;;;22.10;99.90;;;;;;5057876;28;20403;-80
2021/06/30 11:50:43;;;;;;;1.40;1.30;;;22.30;99.90;;;;;;5062041;28;20449;-82
2021/06/30 11:53:32;;;;;;;1.40;1.30;;;22.40;99.90;;;;;;5050497;28;20538;-83
2021/06/30 11:55:58;;;;;;;1.30;1.20;;;22.30;99.90;;;;;;5027452;28;20419;-82
2021/06/30 11:58:47;;;;;;;1.30;1.20;;;22.30;99.90;;;;;;5027288;28;20424;-83
2021/06/30 12:01:23;;;;;;;1.30;1.20;;;22.70;99.90;;;;;;5011788;28;20197;-83
2021/06/30 12:04:07;;;;;;;1.57;1.10;;;22.40;99.90;;;;;;5011401;28;20442;-82
2021/06/30 12:06:33;;;;;;;1.40;1.30;;;22.20;99.90;;;;;;5028243;28;20492;-82
2021/06/30 12:09:12;;;;;;;3.90;1.30;;;22.50;99.90;;;;;;5010501;28;20428;-83
2021/06/30 12:11:42;;;;;;;1.20;1.10;;;22.10;99.90;;;;;;5011472;28;20546;-82
2021/06/30 12:14:11;;;;;;;3.37;1.10;;;22.70;99.90;;;;;;5011048;28;20408;-82
2021/06/30 12:16:42;;;;;;;1.30;1.20;;;23.10;99.90;;;;;;5010375;28;20492;-83
2021/06/30 12:19:11;;;;;;;1.10;1.00;;;22.70;99.90;;;;;;5021496;28;20411;-81
2021/06/30 12:21:38;;;;;;;1.30;1.20;;;22.30;99.90;;;;;;5029359;28;20437;-83
2021/06/30 12:24:13;;;;;;;1.20;1.10;;;22.80;99.90;;;;;;5029694;28;20415;-83
2021/06/30 12:27:02;;;;;;;1.73;1.20;;;22.80;99.90;;;;;;5062898;28;20434;-82
2021/06/30 12:29:28;;;;;;;1.37;1.27;;;22.00;99.90;;;;;;5080866;28;20417;-82
2021/06/30 12:31:55;;;;;;;1.30;1.20;;;22.00;99.90;;;;;;5085896;28;20553;-83
2021/06/30 12:34:22;;;;;;;1.23;1.13;;;21.70;99.90;;;;;;5088876;28;20553;-81
2021/06/30 12:36:48;;;;;;;1.60;1.50;;;21.60;99.90;;;;;;5090976;28;20412;-83
2021/06/30 12:39:18;;;;;;;1.30;1.20;;;21.60;99.90;;;;;;5088030;28;20398;-83
2021/06/30 12:41:59;;;;;;;1.97;1.30;;;21.70;99.90;;;;;;5103039;28;20564;-83
2021/06/30 12:44:27;;;;;;;1.40;1.30;;;21.90;99.90;;;;;;5088652;28;20378;-83
2021/06/30 12:47:11;;;;;;;1.40;1.30;;;21.90;99.90;;;;;;5088131;28;20483;-83
2021/06/30 12:49:39;;;;;;;4.00;2.40;;;21.90;99.90;;;;;;5088566;28;20393;-83
2021/06/30 12:52:05;;;;;;;3.23;1.30;;;22.20;99.90;;;;;;5087071;28;20449;-82